createdAt,value
2018-02-27T00:00:48.911Z,20.73
2018-02-27T00:03:16.407Z,21.20
2018-02-27T00:05:43.887Z,21.00
2018-02-27T00:08:11.360Z,21.83
2018-02-27T00:10:38.889Z,23.92
2018-02-27T00:13:06.391Z,20.12
2018-02-27T00:15:33.873Z,20.98
2018-02-27T00:18:01.360Z,21.70
2018-02-27T00:20:28.895Z,20.33
2018-02-27T00:22:56.500Z,21.30
2018-02-27T00:25:23.971Z,20.10
2018-02-27T00:27:51.470Z,19.80
2018-02-27T00:30:19.000Z,18.48
2018-02-27T00:35:18.347Z,19.73
2018-02-27T00:37:45.807Z,21.10
2018-02-27T00:40:13.615Z,20.70
2018-02-27T00:42:41.147Z,18.40
2018-02-27T00:45:08.611Z,20.65
2018-02-27T00:47:36.079Z,17.83
2018-02-27T00:50:03.547Z,20.30
2018-02-27T00:52:31.260Z,22.02
2018-02-27T00:54:58.831Z,18.60
2018-02-27T00:57:26.343Z,20.60
2018-02-27T00:59:53.809Z,19.05
2018-02-27T01:02:21.285Z,18.23
2018-02-27T01:04:48.764Z,21.35
2018-02-27T01:07:16.244Z,21.77
2018-02-27T01:09:43.731Z,18.45
2018-02-27T01:12:11.243Z,19.35
2018-02-27T01:14:38.758Z,20.67
2018-02-27T01:17:06.335Z,20.83
2018-02-27T01:19:33.819Z,19.33
2018-02-27T01:22:01.276Z,18.83
2018-02-27T01:24:28.727Z,22.95
2018-02-27T01:26:56.195Z,21.08
2018-02-27T01:29:24.360Z,21.27
2018-02-27T01:31:51.906Z,20.60
2018-02-27T01:34:19.396Z,19.42
2018-02-27T01:36:47.054Z,23.15
2018-02-27T01:39:14.746Z,21.25
2018-02-27T01:41:42.272Z,21.90
2018-02-27T01:44:09.751Z,21.60
2018-02-27T01:46:37.215Z,19.85
2018-02-27T01:49:04.700Z,22.45
2018-02-27T01:51:32.232Z,19.60
2018-02-27T01:53:59.687Z,20.83
2018-02-27T01:56:27.655Z,22.87
2018-02-27T01:58:55.115Z,21.83
2018-02-27T02:01:22.658Z,20.95
2018-02-27T02:03:50.152Z,21.15
2018-02-27T02:06:17.693Z,20.98
2018-02-27T02:08:45.144Z,21.48
2018-02-27T02:11:12.627Z,21.62
2018-02-27T02:13:40.092Z,20.83
2018-02-27T02:16:07.647Z,21.10
2018-02-27T02:18:35.163Z,20.10
2018-02-27T02:21:02.638Z,18.83
2018-02-27T02:23:30.116Z,20.30
2018-02-27T02:25:57.583Z,19.98
2018-02-27T02:28:25.046Z,20.23
2018-02-27T02:30:52.529Z,20.40
2018-02-27T02:33:20.021Z,21.95
2018-02-27T02:35:47.477Z,20.00
2018-02-27T02:38:15.079Z,20.80
2018-02-27T02:40:42.538Z,21.98
2018-02-27T02:43:10.016Z,21.40
2018-02-27T02:45:37.495Z,19.17
2018-02-27T02:48:04.967Z,19.25
2018-02-27T02:50:32.660Z,20.20
2018-02-27T02:53:00.111Z,19.45
2018-02-27T02:55:27.595Z,21.27
2018-02-27T02:57:55.074Z,19.80
2018-02-27T03:00:22.717Z,17.98
2018-02-27T03:02:50.214Z,18.90
2018-02-27T03:05:17.698Z,18.02
2018-02-27T03:07:45.178Z,19.95
2018-02-27T03:10:12.701Z,19.40
2018-02-27T03:12:40.352Z,19.62
2018-02-27T03:15:07.837Z,18.23
2018-02-27T03:17:35.316Z,17.83
2018-02-27T03:20:02.852Z,18.40
2018-02-27T03:22:30.987Z,18.42
2018-02-27T03:24:58.483Z,16.87
2018-02-27T03:27:25.953Z,19.42
2018-02-27T03:29:53.414Z,19.08
2018-02-27T03:32:20.899Z,17.30
2018-02-27T03:34:48.369Z,19.17
2018-02-27T03:37:15.871Z,18.20
2018-02-27T03:39:43.339Z,18.27
2018-02-27T03:42:10.815Z,18.45
2018-02-27T03:44:38.272Z,18.87
2018-02-27T03:47:05.736Z,19.33
2018-02-27T03:49:33.219Z,20.20
2018-02-27T03:52:00.692Z,18.73
2018-02-27T03:54:28.355Z,17.42
2018-02-27T03:56:55.833Z,19.12
2018-02-27T03:59:23.311Z,17.55
2018-02-27T04:01:50.770Z,19.73
2018-02-27T04:04:18.235Z,17.92
2018-02-27T04:06:45.927Z,18.58
2018-02-27T04:09:13.637Z,17.92
2018-02-27T04:11:41.202Z,18.65
2018-02-27T04:14:08.700Z,20.35
2018-02-27T04:16:36.221Z,19.65
2018-02-27T04:19:03.726Z,21.62
2018-02-27T04:21:31.276Z,18.75
2018-02-27T04:23:58.917Z,18.65
2018-02-27T04:26:26.383Z,21.37
2018-02-27T04:28:53.847Z,19.58
2018-02-27T04:31:21.586Z,19.60
2018-02-27T04:33:49.037Z,20.85
2018-02-27T04:36:16.543Z,19.20
2018-02-27T04:38:44.055Z,19.05
2018-02-27T04:41:11.512Z,17.60
2018-02-27T04:43:38.970Z,17.87
2018-02-27T04:46:06.456Z,21.37
2018-02-27T04:48:33.966Z,17.65
2018-02-27T04:51:01.444Z,19.05
2018-02-27T04:53:29.951Z,17.60
2018-02-27T04:55:57.440Z,16.55
2018-02-27T04:58:25.018Z,18.45
2018-02-27T05:00:52.499Z,18.20
2018-02-27T05:03:19.960Z,17.65
2018-02-27T05:05:47.424Z,16.02
2018-02-27T05:08:15.250Z,15.75
2018-02-27T05:10:42.755Z,17.30
2018-02-27T05:13:10.515Z,14.35
2018-02-27T05:15:38.000Z,14.90
2018-02-27T05:18:05.459Z,16.00
2018-02-27T05:20:32.985Z,14.18
2018-02-27T05:23:00.442Z,14.13
2018-02-27T05:25:27.961Z,15.20
2018-02-27T05:27:55.477Z,14.50
2018-02-27T05:30:23.190Z,14.60
2018-02-27T05:32:50.724Z,14.07
2018-02-27T05:35:18.193Z,14.95
2018-02-27T05:37:45.677Z,12.05
2018-02-27T05:40:13.383Z,12.65
2018-02-27T05:42:41.143Z,14.20
2018-02-27T05:45:08.708Z,12.32
2018-02-27T05:47:36.167Z,9.18
2018-02-27T05:50:03.701Z,12.48
2018-02-27T05:52:31.973Z,11.50
2018-02-27T05:54:59.450Z,12.85
2018-02-27T05:57:26.923Z,12.95
2018-02-27T05:59:54.408Z,10.85
2018-02-27T06:02:21.887Z,11.70
2018-02-27T06:04:49.367Z,13.00
2018-02-27T06:07:16.876Z,12.10
2018-02-27T06:09:44.330Z,12.37
2018-02-27T06:12:11.787Z,13.00
2018-02-27T06:14:39.256Z,13.25
2018-02-27T06:17:07.724Z,13.43
2018-02-27T06:19:35.179Z,10.68
2018-02-27T06:22:05.937Z,11.38
2018-02-27T06:24:33.984Z,13.27
2018-02-27T06:27:04.826Z,11.95
2018-02-27T06:29:32.305Z,12.60
2018-02-27T06:31:59.800Z,11.93
2018-02-27T06:34:27.386Z,12.90
2018-02-27T06:36:54.887Z,12.45
2018-02-27T06:39:22.351Z,12.45
2018-02-27T06:41:49.859Z,12.05
2018-02-27T06:44:17.561Z,11.15
2018-02-27T06:46:45.067Z,13.38
2018-02-27T06:49:12.551Z,12.05
2018-02-27T06:51:40.010Z,12.63
2018-02-27T06:54:07.503Z,12.52
2018-02-27T06:56:35.018Z,12.32
2018-02-27T06:59:02.479Z,12.73
2018-02-27T07:01:29.942Z,11.30
2018-02-27T07:03:57.391Z,11.60
2018-02-27T07:06:25.106Z,11.27
2018-02-27T07:08:52.616Z,11.60
2018-02-27T07:11:20.100Z,11.52
2018-02-27T07:13:47.585Z,10.95
2018-02-27T07:16:15.185Z,11.50
2018-02-27T07:18:42.650Z,11.70
2018-02-27T07:21:10.124Z,11.77
2018-02-27T07:23:37.582Z,11.95
2018-02-27T07:26:05.064Z,12.45
2018-02-27T07:28:32.807Z,11.77
2018-02-27T07:31:00.264Z,12.57
2018-02-27T07:33:27.786Z,12.75
2018-02-27T07:35:55.297Z,13.35
2018-02-27T07:38:22.828Z,12.63
2018-02-27T07:40:50.312Z,13.93
2018-02-27T07:43:17.871Z,11.05
2018-02-27T07:45:45.326Z,10.70
2018-02-27T07:48:12.790Z,11.15
2018-02-27T07:50:40.290Z,11.55
2018-02-27T07:53:07.760Z,10.98
2018-02-27T07:55:35.260Z,10.02
2018-02-27T07:58:02.734Z,10.65
2018-02-27T08:00:31.291Z,11.45
2018-02-27T08:03:00.169Z,11.10
2018-02-27T08:05:30.611Z,12.00
2018-02-27T08:07:58.106Z,11.25
2018-02-27T08:10:25.605Z,11.60
2018-02-27T08:12:53.076Z,11.55
2018-02-27T08:15:23.055Z,11.73
2018-02-27T08:17:52.719Z,11.30
2018-02-27T08:20:21.948Z,12.20
2018-02-27T08:22:53.334Z,11.43
2018-02-27T08:25:20.816Z,11.80
2018-02-27T08:27:51.347Z,11.12
2018-02-27T08:30:20.448Z,12.25
2018-02-27T08:32:50.161Z,13.60
2018-02-27T08:35:17.632Z,12.90
2018-02-27T08:37:45.128Z,12.68
2018-02-27T08:40:12.631Z,12.45
2018-02-27T08:42:40.284Z,13.88
2018-02-27T08:45:07.749Z,15.50
2018-02-27T08:47:35.228Z,16.60
2018-02-27T08:50:02.903Z,13.82
2018-02-27T08:52:30.597Z,15.68
2018-02-27T08:54:58.275Z,13.70
2018-02-27T08:57:25.756Z,13.23
2018-02-27T08:59:54.469Z,13.15
2018-02-27T09:02:27.633Z,13.90
2018-02-27T09:04:55.818Z,14.02
2018-02-27T09:07:23.324Z,13.30
2018-02-27T09:09:50.794Z,11.10
2018-02-27T09:12:18.803Z,13.05
2018-02-27T09:14:46.258Z,11.75
2018-02-27T09:17:13.727Z,11.73
2018-02-27T09:19:41.284Z,13.30
2018-02-27T09:22:09.940Z,13.77
2018-02-27T09:24:37.423Z,14.50
2018-02-27T09:27:05.037Z,13.80
2018-02-27T09:29:32.500Z,14.13
2018-02-27T09:32:02.511Z,13.65
2018-02-27T09:34:30.360Z,13.93
2018-02-27T09:36:57.843Z,14.77
2018-02-27T09:39:25.316Z,15.27
2018-02-27T09:41:52.787Z,15.45
2018-02-27T09:44:20.265Z,13.68
2018-02-27T09:46:47.769Z,15.20
2018-02-27T09:49:15.250Z,13.60
2018-02-27T09:51:43.012Z,16.73
2018-02-27T09:54:10.488Z,14.45
2018-02-27T09:56:37.952Z,16.65
2018-02-27T09:59:05.432Z,15.95
2018-02-27T10:01:32.895Z,15.05
2018-02-27T10:04:00.372Z,17.05
2018-02-27T10:06:27.968Z,17.42
2018-02-27T10:08:55.416Z,14.13
2018-02-27T10:11:22.955Z,15.90
2018-02-27T10:13:50.411Z,17.35
2018-02-27T10:16:17.889Z,15.63
2018-02-27T10:18:45.810Z,15.27
2018-02-27T10:21:13.468Z,15.30
2018-02-27T10:23:40.952Z,12.75
2018-02-27T10:26:08.430Z,16.20
2018-02-27T10:28:35.927Z,16.25
2018-02-27T10:31:03.418Z,15.18
2018-02-27T10:33:30.933Z,15.60
2018-02-27T10:35:58.472Z,16.52
2018-02-27T10:38:25.946Z,14.30
2018-02-27T10:40:53.439Z,14.60
2018-02-27T10:43:21.344Z,14.00
2018-02-27T10:45:48.871Z,16.20
2018-02-27T10:48:16.364Z,14.30
2018-02-27T10:50:43.863Z,15.40
2018-02-27T10:53:11.380Z,16.02
2018-02-27T10:55:38.874Z,16.15
2018-02-27T10:58:06.347Z,17.42
2018-02-27T11:00:39.328Z,16.67
2018-02-27T11:03:06.791Z,16.50
2018-02-27T11:05:34.268Z,17.52
2018-02-27T11:08:01.750Z,16.90
2018-02-27T11:10:29.489Z,17.30
2018-02-27T11:12:56.978Z,15.38
2018-02-27T11:15:24.487Z,17.77
2018-02-27T11:17:51.964Z,17.35
2018-02-27T11:20:20.160Z,17.75
2018-02-27T11:22:47.649Z,18.02
2018-02-27T11:25:15.145Z,17.00
2018-02-27T11:27:42.595Z,16.65
2018-02-27T11:30:10.075Z,18.55
2018-02-27T11:32:37.553Z,16.60
2018-02-27T11:35:05.058Z,17.83
2018-02-27T11:37:32.542Z,18.37
2018-02-27T11:40:00.000Z,16.05
2018-02-27T11:42:27.604Z,18.25
2018-02-27T11:44:55.079Z,18.75
2018-02-27T11:47:22.567Z,18.02
2018-02-27T11:49:50.040Z,18.12
2018-02-27T11:52:22.399Z,17.92
2018-02-27T11:54:54.886Z,18.67
2018-02-27T11:57:25.376Z,17.27
2018-02-27T11:59:53.780Z,16.80
2018-02-27T12:02:26.967Z,18.80
2018-02-27T12:04:55.030Z,16.85
2018-02-27T12:07:24.368Z,18.70
2018-02-27T12:09:51.853Z,21.00
2018-02-27T12:12:22.001Z,18.55
2018-02-27T12:14:51.854Z,15.80
2018-02-27T12:17:23.702Z,19.17
2018-02-27T12:19:51.927Z,18.73
2018-02-27T12:22:19.459Z,16.12
2018-02-27T12:24:50.812Z,18.17
2018-02-27T12:27:18.296Z,18.55
2018-02-27T12:29:45.845Z,18.20
2018-02-27T12:32:13.330Z,18.23
2018-02-27T12:34:40.813Z,17.80
2018-02-27T12:37:09.316Z,18.00
2018-02-27T12:39:36.808Z,16.73
2018-02-27T12:42:04.445Z,20.12
2018-02-27T12:44:31.947Z,20.33
2018-02-27T12:46:59.427Z,18.23
2018-02-27T12:49:26.904Z,20.90
2018-02-27T12:51:54.376Z,19.15
2018-02-27T12:54:21.854Z,20.40
2018-02-27T12:56:49.314Z,19.98
2018-02-27T12:59:16.775Z,18.23
2018-02-27T13:01:44.314Z,18.95
2018-02-27T13:04:11.793Z,19.05
2018-02-27T13:06:39.254Z,17.67
2018-02-27T13:09:06.759Z,19.33
2018-02-27T13:11:38.142Z,17.77
2018-02-27T13:14:07.923Z,18.23
2018-02-27T13:16:38.059Z,19.12
2018-02-27T13:19:06.185Z,17.65
2018-02-27T13:21:34.486Z,20.20
2018-02-27T13:24:02.582Z,20.80
2018-02-27T13:26:32.092Z,20.15
2018-02-27T13:29:03.740Z,20.90
2018-02-27T13:31:31.224Z,19.87
2018-02-27T13:33:58.683Z,20.73
2018-02-27T13:36:28.235Z,19.20
2018-02-27T13:38:55.747Z,20.75
2018-02-27T13:41:26.204Z,21.20
2018-02-27T13:43:53.718Z,18.50
2018-02-27T13:46:21.171Z,19.20
2018-02-27T13:48:48.645Z,18.95
2018-02-27T13:51:16.211Z,21.80
2018-02-27T13:53:43.665Z,19.98
2018-02-27T13:56:11.143Z,18.48
2018-02-27T13:58:38.627Z,22.10
2018-02-27T14:01:06.147Z,20.48
2018-02-27T14:03:33.671Z,21.25
2018-02-27T14:06:01.121Z,21.55
2018-02-27T14:08:28.602Z,19.50
2018-02-27T14:10:56.076Z,20.00
2018-02-27T14:13:23.548Z,18.98
2018-02-27T14:15:51.034Z,19.35
2018-02-27T14:18:18.507Z,19.85
2018-02-27T14:20:45.989Z,20.52
2018-02-27T14:23:13.461Z,20.58
2018-02-27T14:25:40.976Z,18.83
2018-02-27T14:28:08.483Z,22.05
2018-02-27T14:30:36.006Z,21.20
2018-02-27T14:33:03.518Z,19.02
2018-02-27T14:35:31.033Z,20.65
2018-02-27T14:37:58.533Z,21.42
2018-02-27T14:40:26.068Z,21.98
2018-02-27T14:42:53.567Z,20.55
2018-02-27T14:45:21.074Z,20.37
2018-02-27T14:47:48.563Z,21.87
2018-02-27T14:50:16.145Z,19.42
2018-02-27T14:52:43.657Z,21.12
2018-02-27T14:55:11.131Z,20.40
2018-02-27T14:57:38.625Z,19.58
2018-02-27T15:00:06.186Z,21.23
2018-02-27T15:02:33.844Z,17.37
2018-02-27T15:05:01.351Z,13.35
2018-02-27T15:07:28.814Z,14.13
2018-02-27T15:09:56.263Z,14.73
2018-02-27T15:12:24.107Z,13.70
2018-02-27T15:14:51.577Z,12.13
2018-02-27T15:17:19.027Z,12.77
2018-02-27T15:19:46.548Z,12.10
2018-02-27T15:22:14.361Z,12.73
2018-02-27T15:24:41.932Z,12.55
2018-02-27T15:27:09.433Z,12.00
2018-02-27T15:29:36.905Z,12.68
2018-02-27T15:32:04.421Z,13.27
2018-02-27T15:34:31.949Z,13.75
2018-02-27T15:36:59.429Z,11.50
2018-02-27T15:39:27.843Z,10.85
2018-02-27T15:41:55.361Z,12.27
2018-02-27T15:44:22.893Z,11.95
2018-02-27T15:46:50.366Z,11.80
2018-02-27T15:49:17.880Z,12.90
2018-02-27T15:51:45.341Z,13.10
2018-02-27T15:54:12.804Z,12.52
2018-02-27T15:56:40.281Z,12.75
2018-02-27T15:59:07.752Z,12.18
2018-02-27T16:01:35.285Z,13.05
2018-02-27T16:04:02.864Z,12.82
2018-02-27T16:06:30.379Z,11.98
2018-02-27T16:08:57.937Z,13.05
2018-02-27T16:11:34.951Z,13.00
2018-02-27T16:14:03.907Z,13.05
2018-02-27T16:16:35.059Z,13.55
2018-02-27T16:19:16.017Z,14.15
2018-02-27T16:21:43.597Z,15.27
2018-02-27T16:24:11.075Z,15.70
2018-02-27T16:26:38.564Z,16.20
2018-02-27T16:29:06.038Z,17.27
2018-02-27T16:31:33.608Z,15.65
2018-02-27T16:34:01.141Z,15.57
2018-02-27T16:36:28.877Z,14.90
2018-02-27T16:41:30.218Z,16.40
2018-02-27T16:43:57.837Z,15.82
2018-02-27T16:46:25.340Z,16.62
2018-02-27T16:48:52.845Z,17.42
2018-02-27T16:51:20.565Z,17.25
2018-02-27T16:53:48.075Z,17.20
2018-02-27T16:56:16.618Z,17.25
2018-02-27T16:58:44.133Z,17.75
2018-02-27T17:01:11.690Z,17.33
2018-02-27T17:03:39.162Z,16.05
2018-02-27T17:06:07.236Z,17.05
2018-02-27T17:08:34.810Z,17.20
2018-02-27T17:12:55.566Z,16.95
2018-02-27T17:15:24.430Z,17.98
2018-02-27T17:17:52.499Z,17.83
2018-02-27T17:20:21.114Z,17.27
2018-02-27T17:22:48.652Z,19.90
2018-02-27T17:25:18.153Z,19.67
2018-02-27T17:27:47.975Z,17.95
2018-02-27T17:30:15.545Z,17.02
2018-02-27T17:32:43.094Z,18.52
2018-02-27T17:35:10.973Z,20.33
2018-02-27T17:37:41.372Z,18.90
2018-02-27T17:40:10.580Z,18.00
2018-02-27T17:42:38.855Z,18.10
2018-02-27T17:45:06.378Z,19.23
2018-02-27T17:47:33.961Z,17.80
2018-02-27T17:50:01.868Z,19.87
2018-02-27T17:52:29.390Z,17.12
2018-02-27T17:54:56.903Z,16.35
2018-02-27T17:57:24.414Z,19.05
2018-02-27T17:59:51.973Z,17.58
2018-02-27T18:02:19.864Z,17.30
2018-02-27T18:04:47.460Z,17.37
2018-02-27T18:07:15.012Z,17.15
2018-02-27T18:09:42.998Z,17.98
2018-02-27T18:12:10.522Z,16.30
2018-02-27T18:14:38.536Z,14.65
2018-02-27T18:17:07.364Z,14.35
2018-02-27T18:19:36.441Z,16.70
2018-02-27T18:22:05.697Z,16.20
2018-02-27T18:24:33.412Z,16.67
2018-02-27T18:27:01.960Z,16.50
2018-02-27T18:29:29.571Z,15.75
2018-02-27T18:31:57.116Z,16.30
2018-02-27T18:34:27.794Z,13.77
2018-02-27T18:36:55.408Z,17.45
2018-02-27T18:39:29.386Z,16.17
2018-02-27T18:42:01.090Z,15.20
2018-02-27T18:44:33.370Z,17.35
2018-02-27T18:47:01.876Z,16.80
2018-02-27T18:49:35.832Z,16.15
2018-02-27T18:52:03.323Z,16.62
2018-02-27T18:54:31.528Z,15.55
2018-02-27T18:57:00.441Z,14.15
2018-02-27T18:59:34.407Z,17.02
2018-02-27T19:02:05.253Z,18.08
2018-02-27T19:04:33.850Z,15.90
2018-02-27T19:07:03.237Z,17.62
2018-02-27T19:09:33.210Z,16.48
2018-02-27T19:12:04.390Z,16.40
2018-02-27T19:14:33.731Z,16.58
2018-02-27T19:17:02.103Z,16.25
2018-02-27T19:19:29.681Z,16.05
2018-02-27T19:21:57.170Z,17.02
2018-02-27T19:24:26.570Z,16.37
2018-02-27T19:26:54.155Z,16.70
2018-02-27T19:29:21.698Z,18.08
2018-02-27T19:31:49.309Z,16.80
2018-02-27T19:34:16.803Z,16.92
2018-02-27T19:36:44.268Z,17.85
2018-02-27T19:39:11.867Z,17.25
2018-02-27T19:41:39.407Z,14.95
2018-02-27T19:44:06.910Z,15.70
2018-02-27T19:46:34.835Z,15.45
2018-02-27T19:49:02.452Z,16.10
2018-02-27T19:51:30.073Z,15.48
2018-02-27T19:53:57.665Z,15.95
2018-02-27T19:56:25.324Z,16.92
2018-02-27T19:58:52.890Z,16.08
2018-02-27T20:01:20.501Z,14.35
2018-02-27T20:03:48.064Z,15.88
2018-02-27T20:06:15.617Z,15.07
2018-02-27T20:08:46.183Z,16.60
2018-02-27T20:11:13.790Z,16.12
2018-02-27T20:13:41.393Z,17.05
2018-02-27T20:16:09.339Z,16.65
2018-02-27T20:18:37.224Z,16.58
2018-02-27T20:21:04.812Z,17.17
2018-02-27T20:23:37.920Z,16.05
2018-02-27T20:26:06.414Z,16.20
2018-02-27T20:28:39.682Z,15.05
2018-02-27T20:31:07.290Z,14.68
2018-02-27T20:33:38.206Z,16.45
2018-02-27T20:36:05.741Z,15.43
2018-02-27T20:38:38.984Z,16.25
2018-02-27T20:41:06.543Z,14.73
2018-02-27T20:43:34.084Z,16.67
2018-02-27T20:46:01.568Z,15.32
2018-02-27T20:48:29.521Z,16.75
2018-02-27T20:50:57.023Z,16.37
2018-02-27T20:53:24.525Z,15.38
2018-02-27T20:55:53.207Z,17.58
2018-02-27T20:58:20.884Z,18.05
2018-02-27T21:00:49.055Z,16.52
2018-02-27T21:03:17.684Z,16.15
2018-02-27T21:05:46.698Z,17.75
2018-02-27T21:08:14.659Z,15.65
2018-02-27T21:10:42.524Z,18.50
2018-02-27T21:13:10.053Z,15.20
2018-02-27T21:15:37.556Z,15.02
2018-02-27T21:18:06.296Z,14.80
2018-02-27T21:20:35.725Z,14.80
2018-02-27T21:23:03.332Z,11.82
2018-02-27T21:25:32.834Z,16.12
2018-02-27T21:28:00.794Z,14.10
2018-02-27T21:30:28.601Z,15.48
2018-02-27T21:32:56.430Z,16.25
2018-02-27T21:35:24.517Z,15.15
2018-02-27T21:37:53.102Z,15.02
2018-02-27T21:40:20.628Z,15.65
2018-02-27T21:55:45.268Z,12.10
2018-02-27T21:58:12.916Z,15.05
2018-02-27T22:00:40.784Z,15.15
2018-02-27T22:03:08.672Z,15.15
2018-02-27T22:05:36.254Z,14.90
2018-02-27T22:08:03.869Z,14.20
2018-02-27T22:10:32.892Z,14.87
2018-02-27T22:13:00.575Z,14.60
2018-02-27T22:15:28.110Z,14.45
2018-02-27T22:17:55.663Z,14.55
2018-02-27T22:20:23.216Z,13.45
2018-02-27T22:22:50.768Z,12.48
2018-02-27T22:25:18.748Z,13.35
2018-02-27T22:27:46.306Z,13.98
2018-02-27T22:30:14.140Z,16.33
2018-02-27T22:32:41.729Z,13.85
2018-02-27T22:35:09.322Z,14.13
2018-02-27T22:37:37.122Z,15.82
2018-02-27T22:40:04.657Z,13.85
2018-02-27T22:42:32.294Z,15.90
2018-02-27T22:44:59.817Z,13.13
2018-02-27T22:47:27.310Z,14.27
2018-02-27T22:49:54.824Z,15.35
2018-02-27T22:52:22.408Z,13.20
2018-02-27T22:54:49.974Z,17.55
2018-02-27T22:57:17.631Z,13.93
2018-02-27T22:59:45.213Z,14.43
2018-02-27T23:02:12.775Z,16.20
2018-02-27T23:04:40.367Z,12.52
2018-02-27T23:07:09.200Z,13.73
2018-02-27T23:09:36.734Z,14.70
2018-02-27T23:12:04.447Z,14.38
2018-02-27T23:14:32.158Z,14.15
2018-02-27T23:16:59.671Z,14.27
2018-02-27T23:19:29.249Z,13.75
2018-02-27T23:22:07.936Z,12.98
2018-02-27T23:24:54.665Z,15.13
2018-02-27T23:27:23.632Z,13.13
2018-02-27T23:29:52.491Z,15.18
2018-02-27T23:32:21.474Z,13.60
2018-02-27T23:34:52.189Z,14.82
2018-02-27T23:37:19.678Z,14.95
2018-02-27T23:39:47.169Z,14.82
2018-02-27T23:42:14.692Z,15.98
2018-02-27T23:44:42.267Z,14.63
2018-02-27T23:47:10.352Z,13.20
2018-02-27T23:49:41.284Z,14.25
2018-02-27T23:52:08.793Z,13.52
2018-02-27T23:54:36.280Z,12.63
2018-02-27T23:57:03.803Z,16.25
2018-02-27T23:59:31.285Z,15.75
